British Envoy — MNAN4 — position and weather

sailwx.info

Track history (hours):
 
Tides and Currents Weather Stations Pressure Air Temp Water Temp Dewpoint Dewpoint Depression Visibility Wind Speed Wind Dir Waves Ship Positions

British Envoy

Last reported at 2017-Jan-23 11:04 UTC. Time now 2017-Jan-23 23:11 UTC.
Position S 28°48' E 032°03'.

Length 184.2 m; beam 27.4 m; draft 11.3 m.

Type: Tanker. MMSI: 235011280.

Date/timePositionNaut miles runAvg speedWind from/ knotsBaromVisibWave heightAir tempDewpointWater temp
2017-Jan-23 11:04S 28°48' E 032°03'0 0.8
2017-Jan-23 10:33S 28°48' E 032°04'5 5.2
2017-Jan-23 09:33S 28°52' E 032°08'4 3.9
2017-Jan-23 08:33S 28°54' E 032°12'8 7.8
2017-Jan-23 07:32S 29°01' E 032°16'8 7.9
2017-Jan-23 06:33S 29°08' E 032°17'1110.8
2017-Jan-23 05:33S 29°19' E 032°13'1111.0
2017-Jan-23 04:33S 29°29' E 032°08'1110.8
2017-Jan-23 03:33S 29°39' E 032°03'1111.0
2017-Jan-23 02:33S 29°48' E 031°57'1111.2
2017-Jan-23 01:33S 29°58' E 031°52'1110.9
2017-Jan-23 00:32S 30°09' E 031°46'1110.9
2017-Jan-22 23:33S 30°18' E 031°41'1411.3
2017-Jan-22 22:19S 30°31' E 031°34'911.7
2017-Jan-22 21:33S 30°39' E 031°29'27711.8
2017-Jan-21 22:00S 33°48' E 027°30'90 1.9 030 / 351015.6 5.4 24.022.5
2017-Jan-19 22:00S 33°48' E 025°42'0 0.0 230 / 151012.6 5.4 19.518.7
2017-Jan-19 10:00S 33°48' E 025°42'0 0.0 220 / 261011.910.8 23.020.7
2017-Jan-18 22:00S 33°48' E 025°42'0 0.0 220 / 331006.8 5.4 22.016.3
2017-Jan-18 10:00S 33°48' E 025°42'55 4.6 090 / 251008.6 5.4 22.520.2
2017-Jan-17 22:00S 33°54' E 026°48'8 0.2 080 / 201019.610.8 20.517.3
2017-Jan-16 05:00S 33°48' E 026°54'9613.8 120 / 151019.310.8 21.019.4
2017-Jan-15 22:00S 34°24' E 025°06'34412.5 100 / 71017.910.8 20.518.1
2017-Jan-14 18:33S 34°10' E 018°10'1212.1
2017-Jan-14 17:33S 33°59' E 018°14'1110.9
2017-Jan-14 16:33S 33°52' E 018°24'4 3.6
2017-Jan-14 15:27S 33°55' E 018°27'0 0.0
2017-Jan-14 14:33S 33°55' E 018°27'0 0.0
2017-Jan-14 13:27S 33°55' E 018°27'0 0.0
2017-Jan-14 12:24S 33°55' E 018°27'0 0.0
2017-Jan-14 10:33S 33°55' E 018°27'0 0.0
2017-Jan-14 09:30S 33°55' E 018°27'0 0.0
2017-Jan-14 08:33S 33°55' E 018°27'0 0.0
2017-Jan-14 07:30S 33°55' E 018°27'0 0.0
2017-Jan-14 06:33S 33°55' E 018°27'0 0.0
2017-Jan-14 05:33S 33°55' E 018°27'0 0.0
2017-Jan-14 04:33S 33°55' E 018°27'0 0.0
2017-Jan-14 03:33S 33°55' E 018°27'0 0.0
2017-Jan-13 23:33S 33°55' E 018°27'0 0.0
2017-Jan-13 22:33S 33°55' E 018°27'0 0.0
2017-Jan-13 21:30S 33°55' E 018°27'0 0.0
2017-Jan-13 20:33S 33°55' E 018°27'0 0.0
2017-Jan-13 19:21S 33°55' E 018°27'0 0.0
2017-Jan-13 18:30S 33°55' E 018°27'0 0.0
2017-Jan-13 17:27S 33°55' E 018°27'0 0.0
2017-Jan-13 16:33S 33°55' E 018°27'0 0.0
2017-Jan-13 15:33S 33°55' E 018°27'0 0.0
2017-Jan-13 14:33S 33°55' E 018°27'0 0.0
2017-Jan-13 13:33S 33°55' E 018°27'0 0.0
2017-Jan-13 12:21S 33°55' E 018°27'0 0.0
2017-Jan-13 11:33S 33°55' E 018°27'  
Track history (hours):
 
Tides and Currents Weather Stations Pressure Air Temp Water Temp Dewpoint Dewpoint Depression Visibility Wind Speed Wind Dir Waves Ship Positions

British Envoy

Last reported at 2017-Jan-23 11:04 UTC. Time now 2017-Jan-23 23:11 UTC.
Position S 28°48' E 032°03'.

Length 184.2 m; beam 27.4 m; draft 11.3 m.

Type: Tanker. MMSI: 235011280.

Date/timePositionNaut miles runAvg speedWind from/ knotsBaromVisibWave heightAir tempDewpointWater temp
2017-Jan-23 11:04S 28°48' E 032°03'0 0.8
2017-Jan-23 10:33S 28°48' E 032°04'5 5.2
2017-Jan-23 09:33S 28°52' E 032°08'4 3.9
2017-Jan-23 08:33S 28°54' E 032°12'8 7.8
2017-Jan-23 07:32S 29°01' E 032°16'8 7.9
2017-Jan-23 06:33S 29°08' E 032°17'1110.8
2017-Jan-23 05:33S 29°19' E 032°13'1111.0
2017-Jan-23 04:33S 29°29' E 032°08'1110.8
2017-Jan-23 03:33S 29°39' E 032°03'1111.0
2017-Jan-23 02:33S 29°48' E 031°57'1111.2
2017-Jan-23 01:33S 29°58' E 031°52'1110.9
2017-Jan-23 00:32S 30°09' E 031°46'1110.9
2017-Jan-22 23:33S 30°18' E 031°41'1411.3
2017-Jan-22 22:19S 30°31' E 031°34'911.7
2017-Jan-22 21:33S 30°39' E 031°29'27711.8
2017-Jan-21 22:00S 33°48' E 027°30'90 1.9 030 / 351015.6 5.4 24.022.5
2017-Jan-19 22:00S 33°48' E 025°42'0 0.0 230 / 151012.6 5.4 19.518.7
2017-Jan-19 10:00S 33°48' E 025°42'0 0.0 220 / 261011.910.8 23.020.7
2017-Jan-18 22:00S 33°48' E 025°42'0 0.0 220 / 331006.8 5.4 22.016.3
2017-Jan-18 10:00S 33°48' E 025°42'55 4.6 090 / 251008.6 5.4 22.520.2
2017-Jan-17 22:00S 33°54' E 026°48'8 0.2 080 / 201019.610.8 20.517.3
2017-Jan-16 05:00S 33°48' E 026°54'9613.8 120 / 151019.310.8 21.019.4
2017-Jan-15 22:00S 34°24' E 025°06'34412.5 100 / 71017.910.8 20.518.1
2017-Jan-14 18:33S 34°10' E 018°10'1212.1
2017-Jan-14 17:33S 33°59' E 018°14'1110.9
2017-Jan-14 16:33S 33°52' E 018°24'4 3.6
2017-Jan-14 15:27S 33°55' E 018°27'0 0.0
2017-Jan-14 14:33S 33°55' E 018°27'0 0.0
2017-Jan-14 13:27S 33°55' E 018°27'0 0.0
2017-Jan-14 12:24S 33°55' E 018°27'0 0.0
2017-Jan-14 10:33S 33°55' E 018°27'0 0.0
2017-Jan-14 09:30S 33°55' E 018°27'0 0.0
2017-Jan-14 08:33S 33°55' E 018°27'0 0.0
2017-Jan-14 07:30S 33°55' E 018°27'0 0.0
2017-Jan-14 06:33S 33°55' E 018°27'0 0.0
2017-Jan-14 05:33S 33°55' E 018°27'0 0.0
2017-Jan-14 04:33S 33°55' E 018°27'0 0.0
2017-Jan-14 03:33S 33°55' E 018°27'0 0.0
2017-Jan-13 23:33S 33°55' E 018°27'0 0.0
2017-Jan-13 22:33S 33°55' E 018°27'0 0.0
2017-Jan-13 21:30S 33°55' E 018°27'0 0.0
2017-Jan-13 20:33S 33°55' E 018°27'0 0.0
2017-Jan-13 19:21S 33°55' E 018°27'0 0.0
2017-Jan-13 18:30S 33°55' E 018°27'0 0.0
2017-Jan-13 17:27S 33°55' E 018°27'0 0.0
2017-Jan-13 16:33S 33°55' E 018°27'0 0.0
2017-Jan-13 15:33S 33°55' E 018°27'0 0.0
2017-Jan-13 14:33S 33°55' E 018°27'0 0.0
2017-Jan-13 13:33S 33°55' E 018°27'0 0.0
2017-Jan-13 12:21S 33°55' E 018°27'0 0.0
2017-Jan-13 11:33S 33°55' E 018°27'  

Dump ship's entire track history